Time;durP1;ratioP1;P1;durP2;ratioP2;P2;SDS_P1;SDS_P2;PMS_P1;PMS_P2;Temp;Humidity;BMP_temperature;BMP_pressure;BME280_temperature;BME280_humidity;BME280_pressure;Samples;Min_cycle;Max_cycle;Signal;HPM_P1;HPM_P2
2023/06/15 00:00:44;;;;;;;;;;;;;;;;;;5090814;28;20265;-68
2023/06/15 00:04:28;;;;;;;;;;;;;;;;;;5111888;27;20283;-69
2023/06/15 00:06:54;;;;;;;;;;;;;;;;;;5112032;28;20023;-70
2023/06/15 00:09:20;;;;;;;;;;;;;;;;;;5111203;28;19908;-69
2023/06/15 00:11:47;;;;;;;;;;;;;;;;;;5111603;28;19912;-69
2023/06/15 00:14:13;;;;;;;;;;;;;;;;;;5111817;28;19937;-68
2023/06/15 00:16:41;;;;;;;;;;;;;;;;;;5111139;28;20276;-68
2023/06/15 00:19:08;;;;;;;;;;;;;;;;;;5110117;28;19998;-68
2023/06/15 00:21:41;;;;;;;;;;;;;;;;;;5111362;28;20070;-69
2023/06/15 00:27:00;;;;;;;;;;;;;;;;;;5091799;27;19923;-69
2023/06/15 00:31:17;;;;;;;;;;;;;;;;;;5091591;27;19917;-68
2023/06/15 00:34:59;;;;;;;;;;;;;;;;;;5091428;27;19917;-68
2023/06/15 00:37:25;;;;;;;;;;;;;;;;;;5090930;28;20338;-68
2023/06/15 00:39:51;;;;;;;;;;;;;;;;;;5091317;28;19962;-68
2023/06/15 00:42:17;;;;;;;;;;;;;;;;;;5091250;28;19938;-68
2023/06/15 00:45:13;;;;;;;;;;;;;;;;;;5071142;28;19916;-69
2023/06/15 00:47:41;;;;;;;;;;;;;;;;;;5071195;28;20353;-69
2023/06/15 00:50:09;;;;;;;;;;;;;;;;;;5070654;28;19909;-69
2023/06/15 00:52:35;;;;;;;;;;;;;;;;;;5071173;28;19909;-69
2023/06/15 00:55:03;;;;;;;;;;;;;;;;;;5071110;28;19916;-69
2023/06/15 00:59:48;;;;;;;;;;;;;;;;;;5112216;27;20007;-68
2023/06/15 01:06:12;;;;;;;;;;;;;;;;;;5090977;27;20372;-69
2023/06/15 01:08:38;;;;;;;;;;;;;;;;;;5091610;28;19919;-69
2023/06/15 01:16:04;;;;;;;;;;;;;;;;;;5091719;27;19922;-68
2023/06/15 01:22:24;;;;;;;;;;;;;;;;;;5090774;27;19916;-68
2023/06/15 01:24:50;;;;;;;;;;;;;;;;;;5090381;28;20011;-68
2023/06/15 01:28:17;;;;;;;;;;;;;;;;;;5091771;28;19916;-69
2023/06/15 01:33:18;;;;;;;;;;;;;;;;;;5131874;27;19912;-69
2023/06/15 01:37:12;;;;;;;;;;;;;;;;;;5091755;28;19923;-68
2023/06/15 01:39:39;;;;;;;;;;;;;;;;;;5091103;28;20002;-68
2023/06/15 01:45:05;;;;;;;;;;;;;;;;;;5091688;27;19917;-68
2023/06/15 01:47:31;;;;;;;;;;;;;;;;;;5091139;28;19913;-68
2023/06/15 01:49:57;;;;;;;;;;;;;;;;;;5089953;28;19915;-69
2023/06/15 01:52:23;;;;;;;;;;;;;;;;;;5091267;28;19908;-68
2023/06/15 01:54:49;;;;;;;;;;;;;;;;;;5090855;28;19915;-68
2023/06/15 01:57:15;;;;;;;;;;;;;;;;;;5091376;28;19965;-68
2023/06/15 01:59:41;;;;;;;;;;;;;;;;;;5091067;28;19914;-68
2023/06/15 02:03:33;;;;;;;;;;;;;;;;;;5091959;27;19923;-68
2023/06/15 02:05:59;;;;;;;;;;;;;;;;;;5091648;28;20010;-68
2023/06/15 02:09:26;;;;;;;;;;;;;;;;;;5090986;27;19920;-68
2023/06/15 02:11:52;;;;;;;;;;;;;;;;;;5091359;28;20007;-70
2023/06/15 02:14:18;;;;;;;;;;;;;;;;;;5090002;28;19909;-70
2023/06/15 02:16:44;;;;;;;;;;;;;;;;;;5091019;28;19943;-69
2023/06/15 02:19:10;;;;;;;;;;;;;;;;;;5091195;28;20277;-69
2023/06/15 02:21:36;;;;;;;;;;;;;;;;;;5091004;28;20318;-69
2023/06/15 02:25:27;;;;;;;;;;;;;;;;;;5091727;27;19917;-70
2023/06/15 02:28:45;;;;;;;;;;;;;;;;;;5071087;28;19927;-70
2023/06/15 02:32:24;;;;;;;;;;;;;;;;;;5091411;28;20352;-69
2023/06/15 02:34:50;;;;;;;;;;;;;;;;;;5091377;28;19919;-70
2023/06/15 02:37:16;;;;;;;;;;;;;;;;;;5090861;28;19909;-70
2023/06/15 02:39:42;;;;;;;;;;;;;;;;;;5091280;28;19915;-70
2023/06/15 02:44:40;;;;;;;;;;;;;;;;;;5091073;27;19912;-69
2023/06/15 02:47:06;;;;;;;;;;;;;;;;;;5091426;28;19920;-69
2023/06/15 02:49:32;;;;;;;;;;;;;;;;;;5090946;28;19908;-69
2023/06/15 02:51:58;;;;;;;;;;;;;;;;;;5091301;28;19908;-69
2023/06/15 02:54:24;;;;;;;;;;;;;;;;;;5091206;28;19970;-68
2023/06/15 02:56:51;;;;;;;;;;;;;;;;;;5090783;28;19916;-69
2023/06/15 02:59:17;;;;;;;;;;;;;;;;;;5091088;28;19995;-69
2023/06/15 03:01:43;;;;;;;;;;;;;;;;;;5091103;28;19908;-69
2023/06/15 03:04:09;;;;;;;;;;;;;;;;;;5089227;28;19920;-69
2023/06/15 03:06:36;;;;;;;;;;;;;;;;;;5090998;28;19920;-69
2023/06/15 03:10:20;;;;;;;;;;;;;;;;;;5091591;28;19919;-71
2023/06/15 03:16:54;;;;;;;200.43;176.53;;;;;;;;;;5151590;27;20448;-69
2023/06/15 03:19:20;;;;;;;430.45;265.15;;;;;;;;;;5131621;28;20260;-69
2023/06/15 03:21:47;;;;;;;;;;;;;;;;;;5132369;28;19914;-69
2023/06/15 03:25:44;;;;;;;;;;;;;;;;;;5152557;27;19923;-68
2023/06/15 03:28:10;;;;;;;;;;;;;;;;;;5134372;27;19912;-68
2023/06/15 03:31:46;;;;;;;;;;;;;;;;;;5091244;28;19916;-68
2023/06/15 03:34:12;;;;;;;;;;;;;;;;;;5091414;28;20003;-68
2023/06/15 03:44:58;;;;;;;;;;;;;;;;;;5092184;27;19917;-68
2023/06/15 03:47:25;;;;;;;;;;;;;;;;;;5089653;28;20007;-68
2023/06/15 03:52:45;;;;;;;;;;;;;;;;;;5091666;27;19924;-68
2023/06/15 03:55:13;;;;;;;;;;;;;;;;;;5089698;28;20019;-68
2023/06/15 03:58:25;;;;;;;;;;;;;;;;;;5091542;28;19913;-68
2023/06/15 04:01:32;;;;;;;;;;;;;;;;;;5091202;28;19916;-68
2023/06/15 04:03:58;;;;;;;;;;;;;;;;;;5091353;28;20011;-68
2023/06/15 04:06:24;;;;;;;;;;;;;;;;;;5091294;28;19934;-68
2023/06/15 04:13:36;;;;;;;;;;;;;;;;;;5153109;27;20394;-68
2023/06/15 04:19:13;;;;;;;;;;;;;;;;;;5091964;27;19922;-69
2023/06/15 04:21:39;;;;;;;;;;;;;;;;;;5091181;28;20003;-68
2023/06/15 04:27:27;;;;;;;;;;;;;;;;;;5112543;27;19916;-69
2023/06/15 04:29:53;;;;;;;;;;;;;;;;;;5111325;28;20087;-68
2023/06/15 04:32:19;;;;;;;;;;;;;;;;;;5111717;28;19908;-68
2023/06/15 04:34:45;;;;;;;;;;;;;;;;;;5111612;28;19954;-68
2023/06/15 04:41:07;;;;;;;;;;;;;;;;;;5091612;28;20404;-68
2023/06/15 04:48:56;;;;;;;;;;;;;;;;;;5091816;27;19916;-69
2023/06/15 04:55:57;;;;;;;;;;;;;;;;;;5091450;28;19919;-68
2023/06/15 04:58:23;;;;;;;;;;;;;;;;;;5090944;28;19912;-68
2023/06/15 05:00:49;;;;;;;;;;;;;;;;;;5091526;28;20348;-68
2023/06/15 05:03:15;;;;;;;;;;;;;;;;;;5090852;28;19920;-68
2023/06/15 05:05:41;;;;;;;;;;;;;;;;;;5091180;28;19916;-68
2023/06/15 05:13:41;;;;;;;;;;;;;;;;;;5091428;28;19917;-68
2023/06/15 05:21:26;;;;;;;;;;;;;;;;;;5153506;27;20339;-69
2023/06/15 05:25:23;;;;;;;;;;;;;;;;;;5087703;27;19935;-64
2023/06/15 05:27:49;;;;;;;;;;;;;;;;;;5091122;28;19912;-65
2023/06/15 05:33:17;;;;;;;;;;;;;;;;;;5130121;27;19923;-66
2023/06/15 05:35:54;;;;;;;;;;;;;;;;;;5073819;27;19921;-66
2023/06/15 05:38:20;;;;;;;;;;;;;;;;;;5075053;28;19919;-66
2023/06/15 05:40:46;;;;;;;;;;;;;;;;;;5069667;28;19908;-66
2023/06/15 05:43:12;;;;;;;;;;;;;;;;;;5075925;28;19913;-63
2023/06/15 05:45:38;;;;;;;;;;;;;;;;;;5066687;28;19908;-67
2023/06/15 05:48:04;;;;;;;;;;;;;;;;;;5067537;28;19909;-66
2023/06/15 05:50:31;;;;;;;;;;;;;;;;;;5074240;28;19916;-67
2023/06/15 05:58:16;;;;;;;;;;;;;;;;;;5148863;27;19922;-67
2023/06/15 06:02:07;;;;;;;;;;;;;;;;;;5086435;27;19920;-65
2023/06/15 06:04:34;;;;;;;;;;;;;;;;;;5086593;28;19922;-66
2023/06/15 06:07:00;;;;;;;;;;;;;;;;;;5086478;28;19912;-67
2023/06/15 06:09:26;;;;;;;;;;;;;;;;;;5086574;28;19923;-64
2023/06/15 06:12:45;;;;;;;;;;;;;;;;;;5086968;28;20299;-67
2023/06/15 06:19:02;;;;;;;;;;;;;;;;;;5086998;27;19924;-65
2023/06/15 06:21:28;;;;;;;;;;;;;;;;;;5071427;28;19921;-68
2023/06/15 06:23:54;;;;;;;;;;;;;;;;;;5082797;28;19912;-66
2023/06/15 06:29:47;;;;;;;;;;;;;;;;;;5087967;27;19993;-64
2023/06/15 06:32:13;;;;;;;;;;;;;;;;;;5085340;28;19916;-67
2023/06/15 06:36:11;;;;;;;;;;;;;;;;;;5082594;27;19925;-65
2023/06/15 06:39:07;;;;;;;;;;;;;;;;;;5150266;27;20339;-67
2023/06/15 06:41:33;;;;;;;;;;;;;;;;;;5131868;27;19998;-66
2023/06/15 06:43:59;;;;;;;;;;;;;;;;;;5129527;27;20421;-67
2023/06/15 06:47:40;;;;;;;;;;;;;;;;;;5144300;27;20375;-66
2023/06/15 06:50:06;;;;;;;;;;;;;;;;;;5150364;27;20002;-67
2023/06/15 06:52:32;;;;;;;;;;;;;;;;;;5124484;28;19974;-65
2023/06/15 06:54:58;;;;;;;;;;;;;;;;;;5110223;28;19912;-66
2023/06/15 07:00:25;;;;;;;;;;;;;;;;;;5087549;27;19936;-65
2023/06/15 07:02:51;;;;;;;;;;;;;;;;;;5086908;28;20329;-69
2023/06/15 07:07:10;;;;;;;;;;;;;;;;;;5086461;27;19924;-66
2023/06/15 07:11:09;;;;;;;;;;;;;;;;;;5086821;28;20284;-66
2023/06/15 07:15:07;;;;;;;;;;;;;;;;;;5088313;27;19926;-68
2023/06/15 07:17:33;;;;;;;;;;;;;;;;;;5086754;28;19913;-66
2023/06/15 07:20:53;;;;;;;;;;;;;;;;;;5089465;27;19920;-67
2023/06/15 07:23:18;;;;;;;;;;;;;;;;;;5085957;28;19916;-67
2023/06/15 07:27:38;;;;;;;;;;;;;;;;;;5106292;27;20002;-66
2023/06/15 07:35:03;;;;;;;;;;;;;;;;;;5135061;27;19926;-64
2023/06/15 07:37:29;;;;;;;;;;;;;;;;;;5129538;28;19911;-65
2023/06/15 07:41:03;;;;;;;;;;;;;;;;;;5110589;27;19912;-67
2023/06/15 07:44:12;;;;;;;;;;;;;;;;;;5110500;27;19920;-64
2023/06/15 07:46:37;;;;;;;;;;;;;;;;;;5110323;28;20379;-64
2023/06/15 07:53:02;;;;;;;;;;;;;;;;;;5090289;28;19916;-65
2023/06/15 07:55:28;;;;;;;;;;;;;;;;;;5087452;28;19919;-66
2023/06/15 08:05:06;;;;;;;;;;;;;;;;;;5109122;27;19912;-65
2023/06/15 08:07:32;;;;;;;;;;;;;;;;;;5108148;28;20431;-64
2023/06/15 08:09:59;;;;;;;;;;;;;;;;;;5109425;28;19969;-66
2023/06/15 08:12:25;;;;;;;;;;;;;;;;;;5107909;28;19999;-65
2023/06/15 08:16:50;;;;;;;;;;;;;;;;;;5089208;27;19916;-64
2023/06/15 08:19:27;;;;;;;;;;;;;;;;;;5090073;27;19917;-64
2023/06/15 08:24:03;;;;;;;;;;;;;;;;;;5108606;27;19916;-64
2023/06/15 08:28:28;;;;;;;;;;;;;;;;;;5119698;27;19920;-65
2023/06/15 08:30:54;;;;;;;;;;;;;;;;;;5106662;28;19958;-63
2023/06/15 08:33:20;;;;;;;;;;;;;;;;;;5106215;28;19923;-64
2023/06/15 08:36:57;;;;;;;;;;;;;;;;;;5135457;27;20268;-63
2023/06/15 08:39:23;;;;;;;;;;;;;;;;;;5128218;28;19922;-64
2023/06/15 08:41:49;;;;;;;;;;;;;;;;;;5123773;28;19947;-70
2023/06/15 08:46:39;;;;;;;;;;;;;;;;;;5087354;28;19930;-67
2023/06/15 08:49:05;;;;;;;;;;;;;;;;;;5073311;28;19921;-67
2023/06/15 08:51:31;;;;;;;;;;;;;;;;;;5059155;28;19943;-63
2023/06/15 08:53:57;;;;;;;;;;;;;;;;;;5075587;28;20552;-65
2023/06/15 08:56:23;;;;;;;;;;;;;;;;;;5070694;28;20443;-63
2023/06/15 08:58:49;;;;;;;;;;;;;;;;;;5066439;28;19913;-63
2023/06/15 09:03:40;;;;;;;;;;;;;;;;;;5083407;27;20400;-65
2023/06/15 09:06:06;;;;;;;;;;;;;;;;;;5083263;28;19912;-66
2023/06/15 09:08:32;;;;;;;;;;;;;;;;;;5086163;28;19912;-67
2023/06/15 09:10:58;;;;;;;;;;;;;;;;;;5085678;28;19965;-67
2023/06/15 09:13:24;;;;;;;;;;;;;;;;;;5086595;28;19974;-66
2023/06/15 09:15:50;;;;;;;;;;;;;;;;;;5088798;28;19916;-64
2023/06/15 09:18:16;;;;;;;;;;;;;;;;;;5084868;28;19917;-64
2023/06/15 09:20:42;;;;;;;;;;;;;;;;;;5074686;28;19963;-66
2023/06/15 09:23:44;;;;;;;;;;;;;;;;;;5087180;27;19913;-66
2023/06/15 09:26:10;;;;;;;;;;;;;;;;;;5086168;28;20571;-64
2023/06/15 09:28:36;;;;;;;;;;;;;;;;;;5098038;28;20003;-66
2023/06/15 09:31:03;;;;;;;;;;;;;;;;;;5088805;28;20378;-64
2023/06/15 09:33:29;;;;;;;;;;;;;;;;;;5084224;28;19955;-64
2023/06/15 09:35:57;;;;;;;;;;;;;;;;;;5090148;28;20415;-64
2023/06/15 09:38:23;;;;;;;;;;;;;;;;;;5086230;28;19959;-65
2023/06/15 09:40:48;;;;;;;;;;;;;;;;;;5084580;28;20329;-64
2023/06/15 09:43:16;;;;;;;;;;;;;;;;;;5087605;28;19928;-63
2023/06/15 09:45:42;;;;;;;;;;;;;;;;;;5071275;28;19924;-64
2023/06/15 09:48:08;;;;;;;;;;;;;;;;;;5083432;28;19917;-64
2023/06/15 09:52:36;;;;;;;;;;;;;;;;;;5060667;28;19924;-64
2023/06/15 09:55:02;;;;;;;;;;;;;;;;;;5065535;28;20589;-65
2023/06/15 09:57:28;;;;;;;;;;;;;;;;;;5061822;28;19917;-65
2023/06/15 09:59:54;;;;;;;;;;;;;;;;;;5069282;28;20284;-64
2023/06/15 10:02:20;;;;;;;;;;;;;;;;;;5064625;28;19917;-64
2023/06/15 10:04:55;;;;;;;;;;;;;;;;;;5112458;27;19930;-65
2023/06/15 10:07:21;;;;;;;;;;;;;;;;;;5118579;28;19919;-63
2023/06/15 10:09:47;;;;;;;;;;;;;;;;;;5107888;27;19912;-64
2023/06/15 10:12:13;;;;;;;;;;;;;;;;;;5104425;28;19912;-63
2023/06/15 10:14:39;;;;;;;;;;;;;;;;;;5104730;28;19940;-63
2023/06/15 10:17:05;;;;;;;;;;;;;;;;;;5106370;28;19908;-64
2023/06/15 10:19:31;;;;;;;;;;;;;;;;;;5106482;28;20570;-64
2023/06/15 10:21:58;;;;;;;;;;;;;;;;;;5107294;28;19918;-67
2023/06/15 10:24:24;;;;;;;;;;;;;;;;;;5106300;28;20376;-68
2023/06/15 10:26:50;;;;;;;;;;;;;;;;;;5106270;28;19915;-67
2023/06/15 10:29:16;;;;;;;;;;;;;;;;;;5107111;28;20596;-67
2023/06/15 10:31:42;;;;;;;;;;;;;;;;;;5105415;28;19920;-66
2023/06/15 10:34:08;;;;;;;;;;;;;;;;;;5104922;28;19912;-71
2023/06/15 10:36:34;;;;;;;;;;;;;;;;;;5105676;28;19912;-71
2023/06/15 10:39:01;;;;;;;;;;;;;;;;;;5106545;28;20376;-70
2023/06/15 10:41:27;;;;;;;;;;;;;;;;;;5105954;28;19915;-71
2023/06/15 10:43:53;;;;;;;;;;;;;;;;;;5108649;28;19916;-70
2023/06/15 10:46:19;;;;;;;;;;;;;;;;;;5108342;28;20374;-71
2023/06/15 10:48:45;;;;;;;;;;;;;;;;;;5112004;28;19916;-70
2023/06/15 10:51:11;;;;;;;;;;;;;;;;;;5113617;28;19934;-67
2023/06/15 10:53:37;;;;;;;;;;;;;;;;;;5109878;28;19908;-66
2023/06/15 10:56:03;;;;;;;;;;;;;;;;;;5116096;28;19960;-66
2023/06/15 10:58:51;;;;;;;;;;;;;;;;;;5164797;27;19921;-65
2023/06/15 11:01:17;;;;;;;;;;;;;;;;;;5150613;27;19911;-66
2023/06/15 11:03:43;;;;;;;;;;;;;;;;;;5151133;27;19911;-66
2023/06/15 11:06:10;;;;;;;;;;;;;;;;;;5151450;27;19907;-66
2023/06/15 11:08:36;;;;;;;;;;;;;;;;;;5152323;27;20268;-67
2023/06/15 11:11:02;;;;;;;;;;;;;;;;;;5151787;27;19907;-68
2023/06/15 11:13:28;;;;;;;;;;;;;;;;;;5152627;27;19915;-69
2023/06/15 11:15:54;;;;;;;;;;;;;;;;;;5151772;27;19955;-67
2023/06/15 11:18:20;;;;;;;;;;;;;;;;;;5133747;27;20428;-68
2023/06/15 11:20:47;;;;;;;;;;;;;;;;;;5151862;27;20323;-68
2023/06/15 11:23:14;;;;;;;;;;;;;;;;;;5151556;27;19911;-67
2023/06/15 11:25:41;;;;;;;;;;;;;;;;;;5132985;27;20482;-68
2023/06/15 11:28:06;;;;;;;;;;;;;;;;;;5132731;27;19915;-67
2023/06/15 11:30:33;;;;;;;;;;;;;;;;;;5144553;27;20252;-67
2023/06/15 11:32:59;;;;;;;;;;;;;;;;;;5147399;27;20321;-67
2023/06/15 11:35:25;;;;;;;;;;;;;;;;;;5152061;27;19919;-68
2023/06/15 11:37:51;;;;;;;;;;;;;;;;;;5150818;27;19926;-67
2023/06/15 11:40:17;;;;;;;;;;;;;;;;;;5132831;27;20414;-66
2023/06/15 11:42:43;;;;;;;;;;;;;;;;;;5151856;27;20317;-65
2023/06/15 11:45:09;;;;;;;;;;;;;;;;;;5151016;27;19934;-68
2023/06/15 11:47:35;;;;;;;;;;;;;;;;;;5143736;27;19911;-67
2023/06/15 11:50:01;;;;;;;;;;;;;;;;;;5131525;27;19917;-65
2023/06/15 11:52:27;;;;;;;;;;;;;;;;;;5150868;27;19918;-66
2023/06/15 11:54:53;;;;;;;;;;;;;;;;;;5151443;27;20420;-66
2023/06/15 11:57:20;;;;;;;;;;;;;;;;;;5124032;28;20018;-66
2023/06/15 11:59:46;;;;;;;;;;;;;;;;;;5130262;28;19908;-67
2023/06/15 12:02:12;;;;;;;;;;;;;;;;;;5130171;28;19922;-67
2023/06/15 12:04:38;;;;;;;;;;;;;;;;;;5130418;28;19915;-65
2023/06/15 12:07:08;;;;;;;;;;;;;;;;;;5130056;28;20061;-64
2023/06/15 12:09:35;;;;;;;;;;;;;;;;;;5119770;28;19911;-65
2023/06/15 12:12:01;;;;;;;;;;;;;;;;;;5116595;28;19912;-65
2023/06/15 12:14:27;;;;;;;;;;;;;;;;;;5097846;28;20390;-65
2023/06/15 12:16:53;;;;;;;;;;;;;;;;;;5116755;28;19916;-65
2023/06/15 12:19:19;;;;;;;;;;;;;;;;;;5116141;28;19962;-65
2023/06/15 12:21:45;;;;;;;;;;;;;;;;;;5116198;28;19924;-66
2023/06/15 12:24:11;;;;;;;;;;;;;;;;;;5098320;28;19958;-65
2023/06/15 12:26:37;;;;;;;;;;;;;;;;;;5116404;28;19907;-65
2023/06/15 12:29:03;;;;;;;;;;;;;;;;;;5116925;28;20321;-66
2023/06/15 12:31:29;;;;;;;;;;;;;;;;;;5116548;28;19919;-65
2023/06/15 12:33:55;;;;;;;;;;;;;;;;;;5097664;28;20328;-66
2023/06/15 12:36:21;;;;;;;;;;;;;;;;;;5115884;28;19955;-66
2023/06/15 12:38:47;;;;;;;;;;;;;;;;;;5116298;28;19912;-66
2023/06/15 12:41:13;;;;;;;;;;;;;;;;;;5115858;28;19908;-66
2023/06/15 12:43:39;;;;;;;;;;;;;;;;;;5116435;28;19957;-67
2023/06/15 12:46:05;;;;;;;;;;;;;;;;;;5115830;28;19998;-68
2023/06/15 12:48:34;;;;;;;;;;;;;;;;;;5115484;28;19947;-66
2023/06/15 12:51:00;;;;;;;;;;;;;;;;;;5115526;28;19912;-67
2023/06/15 12:53:25;;;;;;;;;;;;;;;;;;5116064;28;19915;-66
2023/06/15 12:55:51;;;;;;;;;;;;;;;;;;5096721;28;19919;-67
2023/06/15 12:58:17;;;;;;;;;;;;;;;;;;5097188;28;20367;-66
2023/06/15 13:00:43;;;;;;;;;;;;;;;;;;5115691;28;20284;-68
2023/06/15 13:03:10;;;;;;;;;;;;;;;;;;5113883;28;19915;-69
2023/06/15 13:05:36;;;;;;;;;;;;;;;;;;5113934;28;19918;-69
2023/06/15 13:08:02;;;;;;;;;;;;;;;;;;5113973;28;19998;-69
2023/06/15 13:10:28;;;;;;;;;;;;;;;;;;5113398;28;19912;-70
2023/06/15 13:12:54;;;;;;;;;;;;;;;;;;5113938;28;20413;-70
2023/06/15 13:15:20;;;;;;;;;;;;;;;;;;5113790;28;19976;-70
2023/06/15 13:17:46;;;;;;;;;;;;;;;;;;5113794;28;20360;-69
2023/06/15 13:20:13;;;;;;;;;;;;;;;;;;5096497;28;20252;-70
2023/06/15 13:22:39;;;;;;;;;;;;;;;;;;5115433;28;20367;-70
2023/06/15 13:25:06;;;;;;;;;;;;;;;;;;5115797;28;20276;-70
2023/06/15 13:27:37;;;;;;;;;;;;;;;;;;5115576;28;19911;-70
2023/06/15 13:30:03;;;;;;;;;;;;;;;;;;5114861;28;19908;-70
2023/06/15 13:32:29;;;;;;;;;;;;;;;;;;5114302;28;20364;-70
2023/06/15 13:34:55;;;;;;;;;;;;;;;;;;5115543;28;19915;-70
2023/06/15 13:37:22;;;;;;;;;;;;;;;;;;5114913;28;20359;-70
2023/06/15 13:39:48;;;;;;;;;;;;;;;;;;5115390;28;20380;-72
2023/06/15 13:42:14;;;;;;;;;;;;;;;;;;5115445;28;19907;-71
2023/06/15 13:44:40;;;;;;;;;;;;;;;;;;5115268;28;19954;-71
2023/06/15 13:47:06;;;;;;;;;;;;;;;;;;5115264;28;19908;-71
2023/06/15 13:49:32;;;;;;;;;;;;;;;;;;5096946;28;19908;-71
2023/06/15 13:51:59;;;;;;;;;;;;;;;;;;5114859;28;20104;-71
2023/06/15 13:54:25;;;;;;;;;;;;;;;;;;5114733;28;19907;-71
2023/06/15 13:56:52;;;;;;;;;;;;;;;;;;5118309;27;20039;-70
2023/06/15 13:59:34;;;;;;;;;;;;;;;;;;5091259;27;19913;-70
2023/06/15 14:02:01;;;;;;;;;;;;;;;;;;5091580;28;20277;-70
2023/06/15 14:04:27;;;;;;;;;;;;;;;;;;5091252;28;19915;-70
2023/06/15 14:06:53;;;;;;;;;;;;;;;;;;5090463;28;19908;-70
2023/06/15 14:09:19;;;;;;;;;;;;;;;;;;5091195;28;19916;-70
2023/06/15 14:11:45;;;;;;;;;;;;;;;;;;5090771;28;20261;-70
2023/06/15 14:14:13;;;;;;;;;;;;;;;;;;5091190;28;19909;-72
2023/06/15 14:16:39;;;;;;;;;;;;;;;;;;5089703;28;19909;-69
2023/06/15 14:19:04;;;;;;;;;;;;;;;;;;5090663;28;20296;-69
2023/06/15 14:21:30;;;;;;;;;;;;;;;;;;5090959;28;19908;-70
2023/06/15 14:23:56;;;;;;;;;;;;;;;;;;5090841;28;19999;-70
2023/06/15 14:26:23;;;;;;;;;;;;;;;;;;5090830;28;19915;-70
2023/06/15 14:28:49;;;;;;;;;;;;;;;;;;5089504;28;19908;-70
2023/06/15 14:31:15;;;;;;;;;;;;;;;;;;5090705;28;19909;-70
2023/06/15 14:33:41;;;;;;;;;;;;;;;;;;5090207;28;20012;-69
2023/06/15 14:36:08;;;;;;;;;;;;;;;;;;5090682;28;20453;-70
2023/06/15 14:38:33;;;;;;;;;;;;;;;;;;5090450;28;20003;-69
2023/06/15 14:40:59;;;;;;;;;;;;;;;;;;5088882;28;19943;-70
2023/06/15 14:43:25;;;;;;;;;;;;;;;;;;5090429;28;20386;-70
2023/06/15 14:45:52;;;;;;;;;;;;;;;;;;5090475;28;20003;-70
2023/06/15 14:48:18;;;;;;;;;;;;;;;;;;5090161;28;19912;-69
2023/06/15 14:50:44;;;;;;;;;;;;;;;;;;5090384;28;20404;-70
2023/06/15 14:53:10;;;;;;;;;;;;;;;;;;5090469;28;20380;-70
2023/06/15 14:55:36;;;;;;;;;;;;;;;;;;5089757;28;20026;-69
2023/06/15 14:58:02;;;;;;;;;;;;;;;;;;5088734;28;19932;-69
2023/06/15 15:00:28;;;;;;;;;;;;;;;;;;5088798;28;19908;-70
2023/06/15 15:02:54;;;;;;;;;;;;;;;;;;5089772;28;19987;-70
2023/06/15 15:05:20;;;;;;;;;;;;;;;;;;5090175;28;19996;-70
2023/06/15 15:07:46;;;;;;;;;;;;;;;;;;5090422;28;19988;-69
2023/06/15 15:10:12;;;;;;;;;;;;;;;;;;5079673;28;19913;-71
2023/06/15 15:12:38;;;;;;;;;;;;;;;;;;5076470;28;19954;-70
2023/06/15 15:15:04;;;;;;;;;;;;;;;;;;5075633;28;19916;-70
2023/06/15 15:17:31;;;;;;;;;;;;;;;;;;5075590;28;20011;-70
2023/06/15 15:19:57;;;;;;;;;;;;;;;;;;5076244;28;19912;-70
2023/06/15 15:22:23;;;;;;;;;;;;;;;;;;5075894;28;20625;-70
2023/06/15 15:24:49;;;;;;;;;;;;;;;;;;5076091;28;20331;-70
2023/06/15 15:27:15;;;;;;;;;;;;;;;;;;5076176;28;19967;-70
2023/06/15 15:29:53;;;;;;;;;;;;;;;;;;5152460;27;19911;-69
2023/06/15 15:34:03;;;;;;;;;;;;;;;;;;5091532;27;19916;-71
2023/06/15 15:39:37;;;;;;;;;;;;;;;;;;5152960;27;20001;-68
2023/06/15 15:42:54;;;;;;;;;;;;;;;;;;5132277;27;20406;-69
2023/06/15 15:45:21;;;;;;;;;;;;;;;;;;5131791;28;20006;-69
2023/06/15 15:50:05;;;;;;;;;;;;;;;;;;5091515;28;19922;-69
2023/06/15 15:53:33;;;;;;;;;;;;;;;;;;5071042;28;19923;-68
2023/06/15 15:55:59;;;;;;;;;;;;;;;;;;5071050;28;20011;-68
2023/06/15 15:58:25;;;;;;;;;;;;;;;;;;5070517;28;19908;-69
2023/06/15 16:00:51;;;;;;;;;;;;;;;;;;5071029;28;19909;-68
2023/06/15 16:03:17;;;;;;;;;;;;;;;;;;5070866;28;19909;-69
2023/06/15 16:05:43;;;;;;;;;;;;;;;;;;5070465;28;19913;-69
2023/06/15 16:08:09;;;;;;;;;;;;;;;;;;5070819;28;19939;-69
2023/06/15 16:10:35;;;;;;;;;;;;;;;;;;5070914;28;19909;-69
2023/06/15 16:15:08;;;;;;;;;;;;;;;;;;5071035;28;20296;-70
2023/06/15 16:17:34;;;;;;;;;;;;;;;;;;5071115;28;19916;-69
2023/06/15 16:20:22;;;;;;;;;;;;;;;;;;5090956;27;19919;-69
2023/06/15 16:23:43;;;;;;;;;;;;;;;;;;5111708;27;20384;-70
2023/06/15 16:26:09;;;;;;;;;;;;;;;;;;5111260;28;19933;-70
2023/06/15 16:28:35;;;;;;;;;;;;;;;;;;5111504;28;19908;-69
2023/06/15 16:32:24;;;;;;;;;;;;;;;;;;5152950;27;20014;-69
2023/06/15 16:35:10;;;;;;;;;;;;;;;;;;5111812;27;19916;-69
2023/06/15 16:37:36;;;;;;;;;;;;;;;;;;5111686;28;20007;-68
2023/06/15 16:40:05;;;;;;;;;;;;;;;;;;5111227;28;19908;-69
2023/06/15 16:42:31;;;;;;;;;;;;;;;;;;5111479;28;19931;-69
2023/06/15 16:44:57;;;;;;;;;;;;;;;;;;5111458;28;19912;-69
2023/06/15 16:47:23;;;;;;;;;;;;;;;;;;5111142;28;20265;-69
2023/06/15 16:49:49;;;;;;;;;;;;;;;;;;5111500;28;19918;-68
2023/06/15 16:52:15;;;;;;;;;;;;;;;;;;5111315;28;19908;-69
2023/06/15 16:54:41;;;;;;;;;;;;;;;;;;5111067;28;20418;-70
2023/06/15 16:57:07;;;;;;;;;;;;;;;;;;5111336;28;20423;-67
2023/06/15 16:59:33;;;;;;;;;;;;;;;;;;5111288;28;20360;-70
2023/06/15 17:01:59;;;;;;;;;;;;;;;;;;5110811;28;19908;-67
2023/06/15 17:06:54;;;;;;;;;;;;;;;;;;5091496;28;19917;-69
2023/06/15 17:09:21;;;;;;;;;;;;;;;;;;5090995;28;20289;-70
2023/06/15 17:11:47;;;;;;;;;;;;;;;;;;5091246;28;19908;-69
2023/06/15 17:14:13;;;;;;;;;;;;;;;;;;5089943;28;19908;-69
2023/06/15 17:17:08;;;;;;;;;;;;;;;;;;5174155;27;20011;-69
2023/06/15 17:19:34;;;;;;;;;;;;;;;;;;5173663;27;19936;-69
2023/06/15 17:22:01;;;;;;;;;;;;;;;;;;5173229;27;19914;-69
2023/06/15 17:24:27;;;;;;;;;;;;;;;;;;5173520;27;19960;-70
2023/06/15 17:26:53;;;;;;;;;;;;;;;;;;5173809;27;19911;-69
2023/06/15 17:29:19;;;;;;;;;;;;;;;;;;5154530;27;19908;-70
2023/06/15 17:31:45;;;;;;;;;;;;;;;;;;5173492;27;20024;-70
2023/06/15 17:34:11;;;;;;;;;;;;;;;;;;5173300;27;19907;-70
2023/06/15 17:36:37;;;;;;;;;;;;;;;;;;5173088;27;19960;-70
2023/06/15 17:39:03;;;;;;;;;;;;;;;;;;5173326;27;19914;-70
2023/06/15 17:41:29;;;;;;;;;;;;;;;;;;5173585;27;19907;-70
2023/06/15 17:47:55;;;;;;;;;;;;;;;;;;5153256;27;19915;-70
2023/06/15 17:50:21;;;;;;;;;;;;;;;;;;5152762;27;19919;-71
2023/06/15 17:54:14;;;;;;;;;;;;;;;;;;5055326;27;2157190;-69
2023/06/15 17:56:40;;;;;;;;;;;;;;;;;;5132364;28;19912;-69
2023/06/15 17:59:06;;;;;;;;;;;;;;;;;;5132075;28;20002;-68
2023/06/15 18:01:32;;;;;;;;;;;;;;;;;;5132001;28;19915;-69
2023/06/15 18:03:58;;;;;;;;;;;;;;;;;;5131504;28;19908;-70
2023/06/15 18:06:24;;;;;;;;;;;;;;;;;;5131997;28;19912;-70
2023/06/15 18:08:50;;;;;;;;;;;;;;;;;;5113611;28;19908;-70
2023/06/15 18:11:16;;;;;;;;;;;;;;;;;;5131426;28;20268;-69
2023/06/15 18:13:43;;;;;;;;;;;;;;;;;;5131847;28;19923;-69
2023/06/15 18:16:09;;;;;;;;;;;;;;;;;;5131874;28;19907;-70
2023/06/15 18:18:35;;;;;;;;;;;;;;;;;;5131309;28;19938;-70
2023/06/15 18:21:01;;;;;;;;;;;;;;;;;;5131546;28;19912;-69
2023/06/15 18:23:27;;;;;;;;;;;;;;;;;;5131477;28;19908;-70
2023/06/15 18:25:55;;;;;;;;;;;;;;;;;;5131025;28;19907;-69
2023/06/15 18:28:21;;;;;;;;;;;;;;;;;;5131352;28;19973;-69
2023/06/15 18:30:47;;;;;;;;;;;;;;;;;;5131402;28;19911;-69
2023/06/15 18:35:39;;;;;;;;;;;;;;;;;;5091592;28;19912;-72
2023/06/15 18:38:05;;;;;;;;;;;;;;;;;;5091363;28;19916;-69
2023/06/15 18:48:17;;;;;;;;;;;;;;;;;;5152489;27;20415;-71
2023/06/15 18:51:58;;;;;;;;;;;;;;;;;;5111959;27;19916;-70
2023/06/15 18:54:24;;;;;;;;;;;;;;;;;;5111265;28;20269;-71
2023/06/15 18:56:50;;;;;;;;;;;;;;;;;;5111578;28;19908;-69
2023/06/15 19:00:23;;;;;;;;;;;;;;;;;;5152671;27;19920;-71
2023/06/15 19:02:49;;;;;;;;;;;;;;;;;;5152875;27;20383;-69
2023/06/15 19:08:29;;;;;;;;;;;;;;;;;;5091123;27;19974;-69
2023/06/15 19:10:56;;;;;;;;;;;;;;;;;;5091312;28;19912;-69
2023/06/15 19:14:03;;;;;;;;;;;;;;;;;;5152909;27;20009;-69
2023/06/15 19:17:15;;;;;;;;;;;;;;;;;;5153165;27;20010;-69
2023/06/15 19:19:41;;;;;;;;;;;;;;;;;;5152875;27;19911;-69
2023/06/15 19:22:51;;;;;;;;;;;;;;;;;;5131897;27;19914;-69
2023/06/15 19:27:27;;;;;;;;;;;;;;;;;;5091537;27;19919;-71
2023/06/15 19:30:40;;;;;;;;;;;;;;;;;;5091417;28;20295;-71
2023/06/15 19:33:08;;;;;;;;;;;;;;;;;;5090293;28;19919;-70
2023/06/15 19:35:35;;;;;;;;;;;;;;;;;;5089611;28;20284;-71
2023/06/15 19:40:46;;;;;;;;;;;;;;;;;;5090745;27;19917;-70
2023/06/15 19:43:12;;;;;;;;;;;;;;;;;;5090587;28;19995;-70
2023/06/15 19:45:38;;;;;;;;;;;;;;;;;;5091189;28;19915;-69
2023/06/15 19:48:04;;;;;;;;;;;;;;;;;;5090971;28;19915;-70
2023/06/15 19:50:30;;;;;;;;;;;;;;;;;;5089412;28;19909;-69
2023/06/15 19:55:16;;;;;;;;;;;;;;;;;;5091745;28;19916;-69
2023/06/15 19:57:42;;;;;;;;;;;;;;;;;;5090969;28;20020;-69
2023/06/15 20:00:08;;;;;;;;;;;;;;;;;;5091281;28;19908;-69
2023/06/15 20:04:50;;;;;;;;;;;;;;;;;;5091144;27;19916;-69
2023/06/15 20:07:16;;;;;;;;;;;;;;;;;;5091337;28;19954;-70
2023/06/15 20:09:42;;;;;;;;;;;;;;;;;;5091329;28;19908;-71